Time;durP1;ratioP1;P1;durP2;ratioP2;P2;SDS_P1;SDS_P2;PMS_P1;PMS_P2;Temp;Humidity;BMP_temperature;BMP_pressure;BME280_temperature;BME280_humidity;BME280_pressure;Samples;Min_cycle;Max_cycle;Signal;HPM_P1;HPM_P2
2022/10/22 00:01:28;;;;;;;0.50;0.50;;;13.00;99.90;12.30;95753.00;;;;5114339;28;20240;-51
2022/10/22 00:03:55;;;;;;;0.60;0.60;;;12.90;99.90;12.20;95772.00;;;;5114579;28;20194;-52
2022/10/22 00:06:21;;;;;;;0.60;0.60;;;12.70;99.90;12.00;95772.00;;;;5114402;28;20217;-52
2022/10/22 00:08:48;;;;;;;0.80;0.80;;;12.60;99.90;11.90;95770.00;;;;5114586;28;20198;-51
2022/10/22 00:11:18;;;;;;;0.50;0.50;;;12.60;99.90;11.80;95774.00;;;;5114250;28;20225;-52
2022/10/22 00:13:48;;;;;;;0.50;0.50;;;12.50;99.90;11.70;95767.00;;;;5114540;28;20729;-54
2022/10/22 00:16:14;;;;;;;0.50;0.50;;;12.40;99.90;11.80;95770.00;;;;5114411;28;20556;-52
2022/10/22 00:18:41;;;;;;;0.50;0.50;;;12.40;99.90;11.70;95784.00;;;;5114181;28;20197;-51
2022/10/22 00:21:08;;;;;;;0.50;0.50;;;12.40;99.90;11.70;95787.00;;;;5114116;28;20190;-51
2022/10/22 00:23:35;;;;;;;0.50;0.50;;;12.30;99.90;11.80;95778.00;;;;5096331;28;20197;-51
2022/10/22 00:26:04;;;;;;;0.50;0.50;;;12.50;99.90;12.00;95767.00;;;;5114085;28;20276;-52
2022/10/22 00:28:31;;;;;;;0.50;0.50;;;12.50;99.90;12.00;95781.00;;;;5114206;28;20213;-52
2022/10/22 00:30:59;;;;;;;0.57;0.57;;;12.60;99.90;12.00;95781.00;;;;5114176;28;20222;-52
2022/10/22 00:33:26;;;;;;;0.60;0.60;;;12.70;99.90;11.90;95780.00;;;;5114053;28;20222;-53
2022/10/22 00:35:53;;;;;;;0.97;0.93;;;12.60;99.90;12.00;95784.00;;;;5114076;28;20664;-52
2022/10/22 00:38:20;;;;;;;0.60;0.60;;;12.70;99.90;12.00;95788.00;;;;5113899;28;20535;-55
2022/10/22 00:40:47;;;;;;;0.50;0.50;;;12.70;99.90;12.10;95770.00;;;;5114109;28;20522;-53
2022/10/22 00:43:16;;;;;;;0.50;0.50;;;12.70;99.90;12.10;95767.00;;;;5113899;28;20194;-52
2022/10/22 00:45:44;;;;;;;0.50;0.50;;;12.80;99.90;12.20;95738.00;;;;5113859;28;20206;-52
2022/10/22 00:48:15;;;;;;;0.57;0.57;;;12.80;99.90;12.20;95749.00;;;;5113864;28;20206;-52
2022/10/22 00:50:46;;;;;;;0.50;0.50;;;12.90;99.90;12.30;95742.00;;;;5113347;28;20304;-52
2022/10/22 00:53:18;;;;;;;0.50;0.50;;;12.90;99.90;12.20;95737.00;;;;5113799;28;20200;-52
2022/10/22 00:55:50;;;;;;;0.57;0.57;;;12.90;99.90;12.20;95744.00;;;;5095852;28;20657;-53
2022/10/22 00:58:20;;;;;;;0.50;0.50;;;12.80;99.90;12.10;95737.00;;;;5113714;28;20255;-52
2022/10/22 01:00:47;;;;;;;0.50;0.50;;;12.70;99.90;12.00;95719.00;;;;5113444;28;20279;-52
2022/10/22 01:03:14;;;;;;;0.53;0.53;;;12.60;99.90;12.00;95710.00;;;;5113727;28;20213;-52
2022/10/22 01:05:46;;;;;;;0.50;0.50;;;12.60;99.90;12.10;95714.00;;;;5113656;28;20250;-52
2022/10/22 01:08:26;;;;;;;0.50;0.50;;;12.70;99.90;12.20;95715.00;;;;5113680;28;20593;-54
2022/10/22 01:11:06;;;;;;;0.60;0.60;;;12.80;99.90;12.20;95716.00;;;;5095596;28;20708;-52
2022/10/22 01:13:42;;;;;;;4.67;1.73;;;;;12.10;95688.00;;;;5113899;28;20656;-54
2022/10/22 01:16:21;;;;;;;0.53;0.53;;;12.70;99.90;12.20;95689.00;;;;5113506;28;20186;-54
2022/10/22 01:19:05;;;;;;;0.50;0.50;;;12.80;99.90;12.30;95702.00;;;;5113570;28;20225;-60
2022/10/22 01:21:38;;;;;;;0.60;0.60;;;12.90;99.90;12.20;95705.00;;;;5113503;28;20271;-53
2022/10/22 01:24:36;;;;;;;0.50;0.50;;;12.80;99.90;12.20;95695.00;;;;5113469;28;20228;-56
2022/10/22 01:27:28;;;;;;;0.40;0.40;;;12.80;99.90;12.20;95721.00;;;;5095664;28;20287;-54
2022/10/22 01:30:01;;;;;;;0.60;0.60;;;12.80;99.90;12.10;95725.00;;;;5113813;28;20229;-53
2022/10/22 01:32:32;;;;;;;0.50;0.50;;;12.80;99.90;12.00;95734.00;;;;5113553;28;20281;-52
2022/10/22 01:35:05;;;;;;;0.87;0.87;;;12.70;99.90;12.00;95738.00;;;;5113352;28;20225;-52
2022/10/22 01:37:39;;;;;;;0.50;0.50;;;12.60;99.90;12.00;95744.00;;;;5113375;28;20625;-52
2022/10/22 01:40:09;;;;;;;0.50;0.50;;;12.70;99.90;11.90;95762.00;;;;5113265;28;20194;-52
2022/10/22 01:42:36;;;;;;;0.60;0.60;;;12.50;99.90;11.80;95769.00;;;;5113445;28;20297;-52
2022/10/22 01:45:11;;;;;;;0.63;0.63;;;12.50;99.90;11.80;95775.00;;;;5095204;28;20210;-52
2022/10/22 01:47:51;;;;;;;0.50;0.50;;;12.50;99.90;11.90;95767.00;;;;5113087;28;20214;-52
2022/10/22 01:51:03;;;;;;;0.50;0.50;;;12.50;99.90;12.00;95752.00;;;;5113044;28;20218;-52
2022/10/22 01:53:40;;;;;;;0.67;0.67;;;12.60;99.90;12.10;95686.00;;;;5078770;28;20224;-52
2022/10/22 01:56:27;;;;;;;0.50;0.50;;;12.70;99.90;12.10;95756.00;;;;5113163;28;20723;-52
2022/10/22 01:59:05;;;;;;;0.53;0.53;;;12.80;99.90;12.20;95761.00;;;;5113045;28;20251;-52
2022/10/22 02:01:41;;;;;;;0.47;0.47;;;12.80;99.90;12.00;95763.00;;;;5113255;28;20637;-52
2022/10/22 02:04:18;;;;;;;0.50;0.50;;;12.70;99.90;12.10;95759.00;;;;5116385;28;20225;-53
2022/10/22 02:06:49;;;;;;;0.60;0.60;;;12.70;99.90;12.10;95764.00;;;;5118906;28;20371;-52
2022/10/22 02:09:21;;;;;;;0.50;0.50;;;12.70;99.90;12.00;95768.00;;;;5116221;28;20292;-53
2022/10/22 02:11:49;;;;;;;0.50;0.50;;;12.50;99.90;11.90;95764.00;;;;5116447;28;20194;-52
2022/10/22 02:14:18;;;;;;;0.50;0.50;;;;;11.70;95766.00;;;;5116152;28;20305;-53
2022/10/22 02:16:49;;;;;;;0.50;0.50;;;12.40;99.90;11.80;95774.00;;;;5116388;28;20202;-55
2022/10/22 02:19:23;;;;;;;0.43;0.43;;;12.40;99.90;11.70;95767.00;;;;5116180;28;20228;-52
2022/10/22 02:21:50;;;;;;;0.40;0.40;;;12.40;99.90;11.70;95776.00;;;;5098504;28;20543;-52
2022/10/22 02:24:21;;;;;;;0.60;0.60;;;12.30;99.90;11.80;95774.00;;;;5116198;28;20205;-52
2022/10/22 02:27:00;;;;;;;0.50;0.50;;;12.40;99.90;11.90;95771.00;;;;5097998;28;20198;-52
2022/10/22 02:29:36;;;;;;;0.60;0.60;;;12.50;99.90;12.00;95762.00;;;;5098126;28;20245;-52
2022/10/22 02:32:08;;;;;;;0.60;0.60;;;12.60;99.90;12.00;95756.00;;;;5115992;28;20252;-53
2022/10/22 02:34:35;;;;;;;0.60;0.60;;;12.60;99.90;12.00;95745.00;;;;5116083;28;20205;-52
2022/10/22 02:37:03;;;;;;;0.80;0.80;;;12.60;99.90;12.00;95753.00;;;;5116043;28;20221;-52
2022/10/22 02:39:32;;;;;;;0.60;0.60;;;12.60;99.90;12.00;95751.00;;;;5116174;28;20198;-52
2022/10/22 02:42:01;;;;;;;1.00;0.73;;;12.70;99.90;12.10;95754.00;;;;5115848;28;20653;-52
2022/10/22 02:44:27;;;;;;;0.50;0.50;;;12.70;99.90;12.20;95746.00;;;;5115792;28;20285;-53
2022/10/22 02:46:54;;;;;;;0.57;0.57;;;12.70;99.90;12.20;95729.00;;;;5115810;28;20210;-52
2022/10/22 02:49:21;;;;;;;0.50;0.50;;;12.80;99.90;12.20;95724.00;;;;5115529;28;20261;-52
2022/10/22 02:51:47;;;;;;;0.50;0.50;;;12.80;99.90;12.30;95751.00;;;;5115646;28;20656;-52
2022/10/22 02:54:14;;;;;;;0.50;0.50;;;12.90;99.90;12.40;95747.00;;;;5115559;28;20218;-52
2022/10/22 02:56:42;;;;;;;0.50;0.50;;;13.00;99.90;12.40;95740.00;;;;5115548;28;20212;-52
2022/10/22 02:59:09;;;;;;;0.60;0.60;;;13.00;99.90;12.40;95745.00;;;;5115481;28;20253;-54
2022/10/22 03:01:35;;;;;;;0.50;0.50;;;13.00;99.90;12.40;95753.00;;;;5115407;28;20221;-54
2022/10/22 03:04:04;;;;;;;8.03;0.80;;;13.00;99.90;12.30;95741.00;;;;5115301;28;20250;-52
2022/10/22 03:06:32;;;;;;;0.50;0.50;;;12.90;99.90;12.30;95738.00;;;;5115345;28;20236;-52
2022/10/22 03:08:58;;;;;;;0.47;0.47;;;12.90;99.90;12.30;95750.00;;;;5115375;28;20198;-52
2022/10/22 03:11:25;;;;;;;0.60;0.60;;;13.00;99.90;12.20;95742.00;;;;5115102;28;20225;-52
2022/10/22 03:13:51;;;;;;;0.57;0.57;;;12.90;99.90;12.30;95743.00;;;;5115202;28;20274;-53
2022/10/22 03:16:17;;;;;;;0.50;0.50;;;12.90;99.90;12.10;95741.00;;;;5115034;28;20230;-52
2022/10/22 03:18:44;;;;;;;0.43;0.43;;;12.70;99.90;12.00;95741.00;;;;5115211;28;20644;-52
2022/10/22 03:21:20;;;;;;;1.43;0.67;;;12.70;99.90;12.10;95743.00;;;;5115019;28;20218;-53
2022/10/22 03:23:48;;;;;;;0.70;0.70;;;12.70;99.90;12.10;95760.00;;;;5115189;28;20213;-52
2022/10/22 03:26:16;;;;;;;0.50;0.50;;;12.70;99.90;12.00;95758.00;;;;5115348;28;20281;-52
2022/10/22 03:28:45;;;;;;;0.50;0.50;;;12.70;99.90;12.10;95745.00;;;;5115115;28;20190;-52
2022/10/22 03:31:14;;;;;;;0.50;0.50;;;12.70;99.90;12.00;95751.00;;;;5114970;28;20233;-52
2022/10/22 03:33:40;;;;;;;0.50;0.50;;;12.70;99.90;12.00;95747.00;;;;5114809;28;20213;-52
2022/10/22 03:36:08;;;;;;;0.50;0.50;;;12.60;99.90;11.80;95763.00;;;;5114985;28;20590;-52
2022/10/22 03:38:38;;;;;;;0.47;0.47;;;12.50;99.90;11.70;95762.00;;;;5096804;28;20226;-52
2022/10/22 03:41:06;;;;;;;3.63;1.90;;;12.40;99.90;11.70;95750.00;;;;5114730;28;20652;-52
2022/10/22 03:43:34;;;;;;;0.40;0.40;;;12.40;99.90;11.70;95748.00;;;;5114711;28;20258;-52
2022/10/22 03:46:03;;;;;;;0.60;0.60;;;12.30;99.90;11.80;95761.00;;;;5114854;28;20190;-53
2022/10/22 03:48:29;;;;;;;0.50;0.50;;;12.40;99.90;11.80;95764.00;;;;5114764;28;20235;-52
2022/10/22 03:50:56;;;;;;;0.50;0.50;;;12.50;99.90;11.90;95770.00;;;;5114666;28;20222;-54
2022/10/22 03:53:22;;;;;;;0.50;0.50;;;12.50;99.90;12.00;95761.00;;;;5114665;28;20194;-52
2022/10/22 03:55:49;;;;;;;0.50;0.50;;;12.50;99.90;12.10;95769.00;;;;5114655;28;20217;-53
2022/10/22 03:58:16;;;;;;;1.83;1.60;;;12.60;99.90;12.00;95762.00;;;;5114686;28;20204;-52
2022/10/22 04:00:42;;;;;;;0.50;0.50;;;12.60;99.90;11.90;95759.00;;;;5114406;28;20245;-52
2022/10/22 04:03:09;;;;;;;0.50;0.50;;;12.50;99.90;11.80;95767.00;;;;5114463;28;20212;-52
2022/10/22 04:05:35;;;;;;;0.60;0.60;;;12.50;99.90;11.80;95765.00;;;;5114523;28;20209;-52
2022/10/22 04:08:01;;;;;;;0.50;0.50;;;12.50;99.90;11.80;95763.00;;;;5114621;28;20190;-52
2022/10/22 04:10:30;;;;;;;0.60;0.60;;;12.40;99.90;11.80;95770.00;;;;5114298;28;20268;-53
2022/10/22 04:12:58;;;;;;;0.50;0.50;;;12.50;99.90;11.80;95767.00;;;;5114281;28;20229;-52
2022/10/22 04:15:27;;;;;;;0.60;0.60;;;12.40;99.90;11.70;95775.00;;;;5114459;28;20210;-52
2022/10/22 04:17:54;;;;;;;0.70;0.70;;;12.30;99.90;11.70;95777.00;;;;5114196;28;20217;-52
2022/10/22 04:20:21;;;;;;;0.60;0.60;;;12.40;99.90;11.70;95758.00;;;;5114290;28;20193;-52
2022/10/22 04:22:47;;;;;;;0.50;0.50;;;12.40;99.90;11.80;95785.00;;;;5114115;28;20208;-52
2022/10/22 04:25:14;;;;;;;1.00;0.93;;;12.40;99.90;11.80;95796.00;;;;5113519;28;20657;-54
2022/10/22 04:27:40;;;;;;;0.50;0.50;;;12.40;99.90;11.90;95794.00;;;;5114153;28;20305;-52
2022/10/22 04:30:08;;;;;;;0.60;0.60;;;12.50;99.90;11.90;95799.00;;;;5114056;28;20229;-52
2022/10/22 04:32:35;;;;;;;0.60;0.60;;;12.60;99.90;12.00;95796.00;;;;5114086;28;20190;-52
2022/10/22 04:35:02;;;;;;;0.70;0.70;;;12.60;99.90;11.90;95787.00;;;;5114001;28;20226;-52
2022/10/22 04:37:31;;;;;;;0.60;0.60;;;12.60;99.90;11.90;95781.00;;;;5114078;28;20240;-52
2022/10/22 04:39:58;;;;;;;0.53;0.53;;;12.60;99.90;11.90;95777.00;;;;5113836;28;20283;-52
2022/10/22 04:42:24;;;;;;;0.70;0.70;;;12.60;99.90;11.90;95782.00;;;;5113962;28;20202;-51
2022/10/22 04:44:50;;;;;;;0.57;0.57;;;12.50;99.90;11.90;95785.00;;;;5113871;28;20217;-52
2022/10/22 04:47:19;;;;;;;0.60;0.60;;;12.50;99.90;11.80;95784.00;;;;5113886;28;20277;-52
2022/10/22 04:49:48;;;;;;;0.70;0.70;;;12.50;99.90;11.90;95791.00;;;;5113738;28;20201;-52
2022/10/22 04:52:17;;;;;;;0.50;0.50;;;12.50;99.90;11.90;95791.00;;;;5113826;28;20248;-52
2022/10/22 04:54:43;;;;;;;0.50;0.50;;;12.50;99.90;11.80;95793.00;;;;5113726;28;20202;-52
2022/10/22 04:57:09;;;;;;;0.50;0.50;;;12.50;99.90;11.80;95792.00;;;;5113718;28;20226;-53
2022/10/22 04:59:36;;;;;;;0.87;0.87;;;12.40;99.90;11.70;95798.00;;;;5113721;28;20201;-52
2022/10/22 05:02:02;;;;;;;0.60;0.60;;;12.30;99.90;11.70;95800.00;;;;5113534;28;20213;-52
2022/10/22 05:04:29;;;;;;;0.70;0.70;;;12.40;99.90;11.70;95803.00;;;;5113686;28;20189;-53
2022/10/22 05:06:56;;;;;;;0.50;0.50;;;12.40;99.90;11.70;95801.00;;;;5113489;28;20262;-52
2022/10/22 05:09:25;;;;;;;0.50;0.50;;;12.40;99.90;11.70;95802.00;;;;5095626;28;20221;-58
2022/10/22 05:11:52;;;;;;;0.60;0.60;;;12.40;99.90;11.80;95800.00;;;;5113602;28;20228;-54
2022/10/22 05:14:22;;;;;;;0.47;0.47;;;12.40;99.90;11.80;95790.00;;;;5113456;28;20210;-54
2022/10/22 05:16:49;;;;;;;1.00;1.00;;;12.50;99.90;11.80;95800.00;;;;5113482;28;20198;-52
2022/10/22 05:19:20;;;;;;;0.60;0.60;;;12.50;99.90;11.80;95794.00;;;;5113392;28;20221;-52
2022/10/22 05:21:46;;;;;;;0.50;0.50;;;12.50;99.90;11.70;95803.00;;;;5113450;28;20225;-52
2022/10/22 05:24:13;;;;;;;1.70;1.33;;;12.40;99.90;11.60;95798.00;;;;5113399;28;20201;-52
2022/10/22 05:26:42;;;;;;;0.60;0.60;;;12.30;99.90;11.60;95808.00;;;;5113334;28;20277;-52
2022/10/22 05:29:09;;;;;;;0.60;0.60;;;12.30;99.90;11.60;95814.00;;;;5113220;28;20202;-52
2022/10/22 05:31:38;;;;;;;0.80;0.80;;;12.30;99.90;11.70;95807.00;;;;5113237;28;20244;-54
2022/10/22 05:34:04;;;;;;;0.90;0.90;;;12.30;99.90;11.60;95817.00;;;;5113288;28;20198;-52
2022/10/22 05:36:30;;;;;;;0.50;0.50;;;12.30;99.90;11.50;95818.00;;;;5095579;28;20551;-53
2022/10/22 05:38:57;;;;;;;0.70;0.70;;;12.20;99.90;11.60;95813.00;;;;5116813;28;20276;-52
2022/10/22 05:41:28;;;;;;;0.50;0.50;;;12.20;99.90;11.50;95829.00;;;;5116657;28;20546;-52
2022/10/22 05:43:56;;;;;;;0.50;0.50;;;12.30;99.90;11.50;95827.00;;;;5116644;28;20492;-52
2022/10/22 05:46:25;;;;;;;0.50;0.50;;;12.20;99.90;11.60;95841.00;;;;5116533;28;20185;-52
2022/10/22 05:48:53;;;;;;;0.73;0.73;;;12.30;99.90;11.80;95843.00;;;;5116720;28;20194;-52
2022/10/22 05:51:23;;;;;;;0.50;0.50;;;12.40;99.90;11.80;95839.00;;;;5116464;28;20233;-52
2022/10/22 05:53:54;;;;;;;0.80;0.80;;;12.40;99.90;11.90;95843.00;;;;5116296;28;20232;-52
2022/10/22 05:56:21;;;;;;;0.60;0.60;;;12.50;99.90;11.80;95851.00;;;;5116372;28;20194;-52
2022/10/22 05:58:49;;;;;;;0.70;0.70;;;12.50;99.90;11.80;95842.00;;;;5116394;28;20298;-51
2022/10/22 06:01:18;;;;;;;0.80;0.80;;;12.40;99.90;11.70;95855.00;;;;5116340;28;20197;-52
2022/10/22 06:03:46;;;;;;;0.50;0.50;;;12.40;99.90;11.70;95845.00;;;;5116254;28;20201;-51
2022/10/22 06:06:28;;;;;;;0.50;0.50;;;12.30;99.90;11.70;95860.00;;;;5118057;28;20219;-54
2022/10/22 06:09:02;;;;;;;1.00;1.00;;;12.30;99.90;11.70;95868.00;;;;5116594;28;20193;-52
2022/10/22 06:11:28;;;;;;;0.60;0.60;;;12.30;99.90;11.70;95866.00;;;;5116237;28;20225;-51
2022/10/22 06:13:57;;;;;;;0.70;0.70;;;12.40;99.90;11.90;95861.00;;;;5098221;28;20206;-52
2022/10/22 06:16:24;;;;;;;0.93;0.93;;;12.40;99.90;11.90;95856.00;;;;5116119;28;20240;-51
2022/10/22 06:18:50;;;;;;;1.57;1.47;;;12.50;99.90;12.00;95860.00;;;;5116163;28;20194;-51
2022/10/22 06:21:19;;;;;;;0.83;0.83;;;12.60;99.90;12.00;95860.00;;;;5116070;28;20233;-57
2022/10/22 06:23:47;;;;;;;0.60;0.60;;;12.60;99.90;12.00;95875.00;;;;5115994;28;20204;-52
2022/10/22 06:26:16;;;;;;;0.93;0.93;;;12.60;99.90;12.10;95871.00;;;;5116045;28;20260;-52
2022/10/22 06:28:45;;;;;;;0.50;0.50;;;12.70;99.90;11.90;95875.00;;;;5116083;28;20206;-51
2022/10/22 06:31:12;;;;;;;0.60;0.60;;;12.60;99.90;11.90;95880.00;;;;5116116;28;20241;-51
2022/10/22 06:33:41;;;;;;;2.37;0.93;;;12.60;99.90;11.90;95883.00;;;;5116004;28;20197;-51
2022/10/22 06:36:11;;;;;;;0.50;0.50;;;12.50;99.90;12.00;95887.00;;;;5115966;28;20251;-52
2022/10/22 06:38:38;;;;;;;1.00;1.00;;;12.60;99.90;12.00;95885.00;;;;5115998;28;20226;-53
2022/10/22 06:41:07;;;;;;;0.83;0.83;;;12.60;99.90;11.90;95879.00;;;;5115814;28;20202;-51
2022/10/22 06:43:33;;;;;;;0.60;0.60;;;12.60;99.90;11.90;95901.00;;;;5115683;28;20232;-51
2022/10/22 06:46:00;;;;;;;0.60;0.60;;;12.50;99.90;11.90;95901.00;;;;5097665;28;20210;-52
2022/10/22 06:48:28;;;;;;;0.50;0.50;;;12.50;99.90;12.00;95907.00;;;;5115085;28;20194;-52
2022/10/22 06:50:55;;;;;;;0.40;0.40;;;12.60;99.90;12.00;95910.00;;;;5115582;28;20312;-52
2022/10/22 06:53:24;;;;;;;0.80;0.80;;;12.60;99.90;12.00;95922.00;;;;5115663;28;20258;-52
2022/10/22 06:55:52;;;;;;;0.53;0.53;;;12.70;99.90;12.10;95925.00;;;;5115607;28;20267;-53
2022/10/22 06:58:18;;;;;;;0.50;0.50;;;12.70;99.90;12.00;95934.00;;;;5115519;28;20205;-52
2022/10/22 07:00:45;;;;;;;0.57;0.57;;;12.70;99.90;12.00;95929.00;;;;5115375;28;20221;-51
2022/10/22 07:03:13;;;;;;;0.50;0.50;;;12.60;99.90;12.20;95928.00;;;;5115545;28;20266;-52
2022/10/22 07:05:41;;;;;;;1.57;1.47;;;12.70;99.90;12.30;95932.00;;;;5115359;28;20218;-52
2022/10/22 07:08:07;;;;;;;0.50;0.50;;;12.80;99.90;12.40;95937.00;;;;5115363;28;20607;-52
2022/10/22 07:10:36;;;;;;;0.73;0.73;;;13.00;99.90;12.40;95945.00;;;;5115198;28;20649;-53
2022/10/22 07:13:02;;;;;;;0.50;0.50;;;13.00;99.90;12.40;95946.00;;;;5115237;28;20190;-51
2022/10/22 07:15:29;;;;;;;0.50;0.50;;;13.00;99.90;12.30;95953.00;;;;5097191;28;20217;-53
2022/10/22 07:17:55;;;;;;;0.50;0.50;;;12.90;99.90;12.30;95953.00;;;;5115190;28;20519;-52
2022/10/22 07:20:21;;;;;;;0.60;0.60;;;13.00;99.90;12.30;95949.00;;;;5115095;28;20210;-51
2022/10/22 07:22:48;;;;;;;0.60;0.60;;;12.90;99.90;12.40;95952.00;;;;5097020;28;20230;-52
2022/10/22 07:25:15;;;;;;;0.60;0.60;;;13.00;99.90;12.30;95950.00;;;;5115027;28;20194;-52
2022/10/22 07:27:44;;;;;;;0.43;0.43;;;12.90;99.90;12.30;95954.00;;;;5114924;28;20197;-52
2022/10/22 07:30:13;;;;;;;0.50;0.50;;;12.90;99.90;12.40;95960.00;;;;5114995;28;20224;-51
2022/10/22 07:32:39;;;;;;;0.70;0.70;;;13.00;99.90;12.50;95960.00;;;;5114940;28;20206;-54
2022/10/22 07:35:08;;;;;;;0.50;0.50;;;13.10;99.90;12.60;95965.00;;;;5114996;28;20242;-53
2022/10/22 07:37:35;;;;;;;0.53;0.53;;;13.10;99.90;12.50;95973.00;;;;5114852;28;20206;-52
2022/10/22 07:40:02;;;;;;;0.83;0.83;;;13.10;99.90;12.50;95971.00;;;;5114697;28;20213;-51
2022/10/22 07:42:29;;;;;;;0.60;0.60;;;13.10;99.90;12.50;95964.00;;;;5114804;28;20194;-52
2022/10/22 07:44:55;;;;;;;0.60;0.60;;;13.20;99.90;12.40;95973.00;;;;5114704;28;20233;-52
2022/10/22 07:47:21;;;;;;;0.63;0.63;;;13.10;99.90;12.50;95991.00;;;;5114759;28;20660;-52
2022/10/22 07:49:48;;;;;;;0.73;0.73;;;13.10;99.90;12.70;95975.00;;;;5114604;28;20240;-52
2022/10/22 07:52:17;;;;;;;0.97;0.87;;;13.20;99.90;12.90;95980.00;;;;5114556;28;20209;-52
2022/10/22 07:54:43;;;;;;;0.70;0.70;;;13.30;99.90;12.70;95979.00;;;;5114743;28;20201;-53
2022/10/22 07:57:10;;;;;;;0.60;0.60;;;13.30;99.70;12.60;95984.00;;;;5114624;28;20198;-52
2022/10/22 07:59:37;;;;;;;0.60;0.60;;;13.20;99.90;12.60;95987.00;;;;5113656;28;20517;-52
2022/10/22 08:02:03;;;;;;;0.50;0.50;;;13.20;99.90;12.70;95975.00;;;;5114487;28;20245;-52
2022/10/22 08:04:30;;;;;;;0.40;0.40;;;13.30;99.90;12.70;95987.00;;;;5114532;28;20259;-55
2022/10/22 08:06:56;;;;;;;0.60;0.60;;;13.20;99.90;12.80;95990.00;;;;5114462;28;20655;-52
2022/10/22 08:09:22;;;;;;;0.60;0.60;;;13.40;99.90;12.90;95984.00;;;;5114543;28;20201;-52
2022/10/22 08:11:49;;;;;;;0.60;0.60;;;13.40;99.90;13.10;95986.00;;;;5114237;28;20674;-52
2022/10/22 08:14:16;;;;;;;0.80;0.80;;;13.50;99.90;13.20;95986.00;;;;5114414;28;20206;-53
2022/10/22 08:16:45;;;;;;;0.50;0.50;;;13.70;99.90;13.40;95989.00;;;;5096332;28;20201;-53
2022/10/22 08:19:12;;;;;;;0.70;0.70;;;13.90;99.90;13.50;95985.00;;;;5114214;28;20320;-52
2022/10/22 08:21:39;;;;;;;0.50;0.50;;;14.00;98.90;13.50;95996.00;;;;5114233;28;20274;-52
2022/10/22 08:24:07;;;;;;;0.70;0.70;;;14.10;97.70;13.60;95990.00;;;;5114057;28;20217;-52
2022/10/22 08:26:33;;;;;;;0.50;0.50;;;14.10;98.10;13.70;95985.00;;;;5114294;28;20200;-52
2022/10/22 08:29:00;;;;;;;0.50;0.50;;;14.30;97.90;13.90;95990.00;;;;5114083;28;20221;-52
2022/10/22 08:31:27;;;;;;;0.43;0.43;;;14.50;96.70;14.10;95990.00;;;;5114012;28;20667;-52
2022/10/22 08:33:53;;;;;;;0.70;0.70;;;14.60;96.60;14.20;95988.00;;;;5114027;28;20242;-52
2022/10/22 08:36:19;;;;;;;0.60;0.60;;;14.70;96.70;14.40;95982.00;;;;5114023;28;20621;-52
2022/10/22 08:38:48;;;;;;;0.47;0.47;;;14.80;97.00;14.50;95990.00;;;;5095906;28;20225;-53
2022/10/22 08:41:18;;;;;;;0.73;0.73;;;15.00;97.10;14.70;95982.00;;;;5113896;28;20190;-52
2022/10/22 08:44:18;;;;;;;0.60;0.60;;;15.20;96.30;15.00;95988.00;;;;5113961;28;20300;-52
2022/10/22 08:47:03;;;;;;;0.40;0.40;;;;;15.30;96002.00;;;;5095936;28;20206;-52
2022/10/22 08:49:33;;;;;;;0.50;0.50;;;;;15.50;95996.00;;;;5113725;28;20222;-52
2022/10/22 08:52:00;;;;;;;0.40;0.40;;;;;15.70;96006.00;;;;5113914;28;20248;-52
2022/10/22 08:54:35;;;;;;;0.83;0.80;;;;;16.00;95999.00;;;;5113789;28;20214;-52
2022/10/22 08:57:30;;;;;;;0.50;0.50;;;16.40;90.10;15.90;96007.00;;;;5113707;28;20215;-52
2022/10/22 09:00:06;;;;;;;0.50;0.50;;;16.40;90.70;16.10;96008.00;;;;5095743;28;20237;-52
2022/10/22 09:02:50;;;;;;;0.50;0.50;;;16.50;90.60;16.00;96010.00;;;;5095787;28;20212;-52
2022/10/22 09:05:32;;;;;;;0.43;0.43;;;16.40;91.50;16.10;96011.00;;;;5113669;28;20236;-58
2022/10/22 09:07:58;;;;;;;0.50;0.50;;;16.60;89.50;16.00;96016.00;;;;5113522;28;20205;-53
2022/10/22 09:10:32;;;;;;;0.50;0.50;;;16.50;86.50;16.10;96018.00;;;;5113504;28;20218;-52
2022/10/22 09:12:58;;;;;;;1.03;1.03;;;16.50;87.90;16.40;96016.00;;;;5099259;28;20300;-52
2022/10/22 09:15:25;;;;;;;0.70;0.70;;;16.80;86.90;16.30;96023.00;;;;5117095;28;20300;-52
2022/10/22 09:18:13;;;;;;;1.30;1.30;;;16.80;85.70;16.40;96026.00;;;;5117114;28;20284;-55
2022/10/22 09:20:48;;;;;;;0.50;0.50;;;16.90;87.10;16.30;96031.00;;;;5116967;28;20247;-52
2022/10/22 09:23:32;;;;;;;0.40;0.40;;;16.80;85.30;16.30;96044.00;;;;5099009;28;20217;-52
2022/10/22 09:26:00;;;;;;;0.57;0.57;;;16.70;86.20;16.00;96033.00;;;;5099240;28;20217;-53
2022/10/22 09:28:26;;;;;;;1.00;1.00;;;16.60;86.10;15.80;96032.00;;;;5116889;28;20191;-52
2022/10/22 09:30:53;;;;;;;0.50;0.50;;;16.40;86.30;15.90;96037.00;;;;5116729;28;20230;-52
2022/10/22 09:33:25;;;;;;;0.40;0.40;;;16.40;87.70;15.90;96023.00;;;;5098742;28;20209;-52
2022/10/22 09:35:57;;;;;;;0.53;0.53;;;16.50;85.90;16.00;96042.00;;;;5116740;28;20279;-52
2022/10/22 09:38:27;;;;;;;0.50;0.50;;;16.50;87.30;15.90;96042.00;;;;5116859;28;20197;-52
2022/10/22 09:40:56;;;;;;;0.60;0.60;;;16.50;86.50;16.00;96022.00;;;;5098707;28;20244;-52
2022/10/22 09:43:23;;;;;;;0.63;0.63;;;16.50;87.60;16.10;96056.00;;;;5116693;28;20206;-52
2022/10/22 09:45:57;;;;;;;0.47;0.47;;;16.50;87.80;16.20;96062.00;;;;5116576;28;20220;-54
2022/10/22 09:48:33;;;;;;;0.50;0.50;;;16.60;88.50;16.20;96064.00;;;;5116676;28;20221;-52
2022/10/22 09:51:05;;;;;;;0.53;0.53;;;16.60;87.60;16.30;96072.00;;;;5116435;28;20233;-52
2022/10/22 09:53:41;;;;;;;0.70;0.70;;;16.70;88.50;16.30;96066.00;;;;5116539;28;20190;-52
2022/10/22 09:56:16;;;;;;;0.50;0.50;;;16.80;87.30;16.40;96066.00;;;;5098684;28;20225;-53
2022/10/22 09:58:45;;;;;;;0.70;0.70;;;16.90;86.90;16.40;96063.00;;;;5098518;28;20308;-52
2022/10/22 10:01:18;;;;;;;0.87;0.87;;;16.90;87.20;16.50;96066.00;;;;5116479;28;20677;-53
2022/10/22 10:03:48;;;;;;;0.50;0.50;;;17.10;84.50;16.60;96072.00;;;;5116501;28;20212;-53
2022/10/22 10:06:19;;;;;;;0.47;0.47;;;17.00;84.30;16.30;96076.00;;;;5098213;28;20210;-52
2022/10/22 10:08:47;;;;;;;0.50;0.50;;;;;16.40;96073.00;;;;5116233;28;20216;-53
2022/10/22 10:11:26;;;;;;;0.50;0.50;;;16.90;85.80;16.40;96079.00;;;;5116123;28;20332;-52
2022/10/22 10:14:12;;;;;;;0.40;0.40;;;16.90;86.50;16.30;96077.00;;;;5116268;28;20197;-52
2022/10/22 10:16:56;;;;;;;0.57;0.57;;;16.70;85.00;16.60;96082.00;;;;5116154;28;20251;-52
2022/10/22 10:19:44;;;;;;;0.77;0.77;;;16.90;84.40;16.50;96085.00;;;;5116209;28;20217;-52
2022/10/22 10:22:26;;;;;;;0.80;0.80;;;17.00;85.00;16.60;96080.00;;;;5115453;28;20193;-53
2022/10/22 10:25:19;;;;;;;0.60;0.60;;;17.10;83.30;16.70;96080.00;;;;5115978;28;20213;-52
2022/10/22 10:27:55;;;;;;;0.50;0.50;;;17.10;85.40;17.00;96092.00;;;;5116153;28;20194;-53
2022/10/22 10:30:23;;;;;;;0.40;0.40;;;17.40;84.80;17.60;96089.00;;;;5115877;28;20225;-53
2022/10/22 10:33:06;;;;;;;0.50;0.50;;;17.80;82.90;17.50;96080.00;;;;5098165;28;20202;-57
2022/10/22 10:35:48;;;;;;;0.50;0.50;;;17.80;79.40;17.80;96095.00;;;;5116363;28;20347;-58
2022/10/22 10:38:37;;;;;;;0.57;0.57;;;18.10;80.80;18.00;96096.00;;;;5116197;28;20242;-54
2022/10/22 10:41:22;;;;;;;2.83;0.80;;;18.30;79.80;18.00;96091.00;;;;5115893;28;20228;-54
2022/10/22 10:44:10;;;;;;;0.40;0.40;;;18.30;78.40;18.30;96089.00;;;;5115875;28;20292;-51
2022/10/22 10:46:54;;;;;;;0.50;0.50;;;18.70;74.00;18.20;96083.00;;;;5115705;28;20306;-52
2022/10/22 10:49:25;;;;;;;0.40;0.40;;;18.60;75.60;18.20;96096.00;;;;5115988;28;20220;-58
2022/10/22 10:52:04;;;;;;;1.27;1.17;;;18.60;76.70;18.70;96083.00;;;;5097560;28;20689;-51
2022/10/22 10:54:44;;;;;;;0.50;0.50;;;19.00;77.60;18.90;96082.00;;;;5115597;28;20278;-52
2022/10/22 10:57:31;;;;;;;0.40;0.40;;;19.20;75.60;19.00;96082.00;;;;5115530;28;20228;-51
2022/10/22 11:00:08;;;;;;;0.60;0.60;;;19.30;74.00;18.70;96097.00;;;;5097657;28;20209;-54
2022/10/22 11:03:33;;;;;;;0.53;0.53;;;19.20;73.50;18.80;96077.00;;;;5115453;28;20296;-51
2022/10/22 11:06:03;;;;;;;0.50;0.50;;;19.20;72.50;19.10;96073.00;;;;5013431;28;20839;-51
2022/10/22 11:08:35;;;;;;;0.60;0.60;;;19.40;71.20;19.40;96076.00;;;;5013116;28;20236;-51
2022/10/22 11:11:09;;;;;;;0.83;0.83;;;19.60;72.00;19.60;96074.00;;;;5051634;28;20290;-51
2022/10/22 11:13:40;;;;;;;0.50;0.50;;;;;19.80;96075.00;;;;5115276;28;20225;-52